FVCZ

Buffalo Range Airport

Chiredzi, Zimbabwe
METAR FVCZ 160600Z 18004KT CAVOK 26/19 Q1024
Observed Flight Rules
Dec-16 @ 06:00 UTC (18 hours ago) Visual Flight Rules
Wind Visibility Clouds
180° at 4 knots 10,000+ meters
  • Clear skies
Temperatures Readings
Current 26°C / 79°F
Dewpoint 19°C / 66°F
Humidity 65%
Altimeter 30.24" Hg
Pressure 1024 hPa
Elevation 430
METAR FVCZ 160600Z 18004KT CAVOK 26/19 Q1024
Observed Flight Rules
Dec-16 @ 06:00 UTC
(18 hours ago)
VFR
Wind Visibility
180° at 4 knots 10,000+ meters
Clouds
  • Clear skies
Temperature Dewpoint
26°C / 79°F 19°C / 66°F
Humidity Altimeter Pressure
65% 30.24" Hg 1024 hPa